sensor_id;sensor_type;location;lat;lon;timestamp;P1;durP1;ratioP1;P2;durP2;ratioP2
20589;SDS011;10453;50.810;12.540;2024-01-27T00:01:17;7.22;;;1.48;;
20589;SDS011;10453;50.810;12.540;2024-01-27T00:09:57;4.55;;;1.08;;
20589;SDS011;10453;50.810;12.540;2024-01-27T00:14:17;8.57;;;1.50;;
20589;SDS011;10453;50.810;12.540;2024-01-27T00:18:36;8.80;;;1.42;;
20589;SDS011;10453;50.810;12.540;2024-01-27T00:22:58;7.43;;;1.65;;
20589;SDS011;10453;50.810;12.540;2024-01-27T00:27:18;7.05;;;1.42;;
20589;SDS011;10453;50.810;12.540;2024-01-27T00:31:47;6.47;;;1.30;;
20589;SDS011;10453;50.810;12.540;2024-01-27T00:36:06;9.02;;;1.63;;
20589;SDS011;10453;50.810;12.540;2024-01-27T00:40:29;6.93;;;1.85;;
20589;SDS011;10453;50.810;12.540;2024-01-27T00:44:48;7.93;;;1.30;;
20589;SDS011;10453;50.810;12.540;2024-01-27T00:53:27;8.75;;;1.42;;
20589;SDS011;10453;50.810;12.540;2024-01-27T00:57:45;4.90;;;1.17;;
20589;SDS011;10453;50.810;12.540;2024-01-27T01:06:23;11.68;;;1.60;;
20589;SDS011;10453;50.810;12.540;2024-01-27T01:10:43;6.90;;;1.27;;
20589;SDS011;10453;50.810;12.540;2024-01-27T01:15:02;7.05;;;1.33;;
20589;SDS011;10453;50.810;12.540;2024-01-27T01:19:21;14.38;;;1.63;;
20589;SDS011;10453;50.810;12.540;2024-01-27T01:23:42;12.55;;;2.17;;
20589;SDS011;10453;50.810;12.540;2024-01-27T01:28:04;11.60;;;1.60;;
20589;SDS011;10453;50.810;12.540;2024-01-27T01:32:22;12.57;;;1.95;;
20589;SDS011;10453;50.810;12.540;2024-01-27T01:36:49;10.30;;;1.60;;
20589;SDS011;10453;50.810;12.540;2024-01-27T01:41:11;10.07;;;1.70;;
20589;SDS011;10453;50.810;12.540;2024-01-27T01:45:31;8.70;;;1.80;;
20589;SDS011;10453;50.810;12.540;2024-01-27T01:49:50;16.05;;;2.13;;
20589;SDS011;10453;50.810;12.540;2024-01-27T01:54:18;12.43;;;2.00;;
20589;SDS011;10453;50.810;12.540;2024-01-27T01:58:37;15.63;;;2.05;;
20589;SDS011;10453;50.810;12.540;2024-01-27T02:02:55;12.07;;;2.30;;
20589;SDS011;10453;50.810;12.540;2024-01-27T02:07:14;9.23;;;1.67;;
20589;SDS011;10453;50.810;12.540;2024-01-27T02:11:37;11.35;;;1.67;;
20589;SDS011;10453;50.810;12.540;2024-01-27T02:15:57;6.50;;;1.27;;
20589;SDS011;10453;50.810;12.540;2024-01-27T02:20:44;9.80;;;1.87;;
20589;SDS011;10453;50.810;12.540;2024-01-27T02:25:04;11.10;;;1.50;;
20589;SDS011;10453;50.810;12.540;2024-01-27T02:29:23;12.02;;;1.88;;
20589;SDS011;10453;50.810;12.540;2024-01-27T02:33:45;9.93;;;1.95;;
20589;SDS011;10453;50.810;12.540;2024-01-27T02:38:07;6.90;;;1.50;;
20589;SDS011;10453;50.810;12.540;2024-01-27T02:42:26;10.98;;;1.60;;
20589;SDS011;10453;50.810;12.540;2024-01-27T02:46:46;10.23;;;1.48;;
20589;SDS011;10453;50.810;12.540;2024-01-27T02:51:10;9.10;;;1.90;;
20589;SDS011;10453;50.810;12.540;2024-01-27T02:55:29;13.35;;;1.88;;
20589;SDS011;10453;50.810;12.540;2024-01-27T02:59:47;15.15;;;1.83;;
20589;SDS011;10453;50.810;12.540;2024-01-27T03:04:06;10.25;;;1.77;;
20589;SDS011;10453;50.810;12.540;2024-01-27T03:08:26;11.00;;;1.75;;
20589;SDS011;10453;50.810;12.540;2024-01-27T03:12:50;8.45;;;1.80;;
20589;SDS011;10453;50.810;12.540;2024-01-27T03:17:11;11.05;;;2.03;;
20589;SDS011;10453;50.810;12.540;2024-01-27T03:21:30;15.70;;;2.67;;
20589;SDS011;10453;50.810;12.540;2024-01-27T03:25:51;12.98;;;1.95;;
20589;SDS011;10453;50.810;12.540;2024-01-27T03:30:15;10.85;;;2.30;;
20589;SDS011;10453;50.810;12.540;2024-01-27T03:34:34;8.80;;;1.85;;
20589;SDS011;10453;50.810;12.540;2024-01-27T03:47:35;11.02;;;1.35;;
20589;SDS011;10453;50.810;12.540;2024-01-27T03:51:54;6.38;;;1.70;;
20589;SDS011;10453;50.810;12.540;2024-01-27T04:00:30;10.57;;;1.85;;
20589;SDS011;10453;50.810;12.540;2024-01-27T04:04:52;8.38;;;1.88;;
20589;SDS011;10453;50.810;12.540;2024-01-27T04:09:13;14.57;;;3.05;;
20589;SDS011;10453;50.810;12.540;2024-01-27T04:13:32;11.90;;;2.15;;
20589;SDS011;10453;50.810;12.540;2024-01-27T04:17:57;6.20;;;1.95;;
20589;SDS011;10453;50.810;12.540;2024-01-27T04:22:18;13.10;;;2.03;;
20589;SDS011;10453;50.810;12.540;2024-01-27T04:26:41;11.80;;;2.47;;
20589;SDS011;10453;50.810;12.540;2024-01-27T04:31:00;10.75;;;2.10;;
20589;SDS011;10453;50.810;12.540;2024-01-27T04:35:29;12.48;;;1.73;;
20589;SDS011;10453;50.810;12.540;2024-01-27T04:39:50;12.00;;;1.80;;
20589;SDS011;10453;50.810;12.540;2024-01-27T04:44:14;15.88;;;2.35;;
20589;SDS011;10453;50.810;12.540;2024-01-27T04:48:39;9.02;;;2.28;;
20589;SDS011;10453;50.810;12.540;2024-01-27T04:53:26;15.23;;;1.98;;
20589;SDS011;10453;50.810;12.540;2024-01-27T04:57:45;11.50;;;1.80;;
20589;SDS011;10453;50.810;12.540;2024-01-27T05:02:13;12.00;;;2.40;;
20589;SDS011;10453;50.810;12.540;2024-01-27T05:06:36;10.85;;;2.90;;
20589;SDS011;10453;50.810;12.540;2024-01-27T05:11:00;11.73;;;2.05;;
20589;SDS011;10453;50.810;12.540;2024-01-27T05:15:18;14.65;;;2.33;;
20589;SDS011;10453;50.810;12.540;2024-01-27T05:19:36;11.82;;;1.92;;
20589;SDS011;10453;50.810;12.540;2024-01-27T05:28:22;13.73;;;2.37;;
20589;SDS011;10453;50.810;12.540;2024-01-27T05:32:41;6.05;;;1.83;;
20589;SDS011;10453;50.810;12.540;2024-01-27T05:37:06;19.70;;;2.30;;
20589;SDS011;10453;50.810;12.540;2024-01-27T05:41:33;21.08;;;2.63;;
20589;SDS011;10453;50.810;12.540;2024-01-27T05:45:55;10.68;;;2.38;;
20589;SDS011;10453;50.810;12.540;2024-01-27T05:54:37;18.25;;;2.60;;
20589;SDS011;10453;50.810;12.540;2024-01-27T05:58:58;5.68;;;2.35;;
20589;SDS011;10453;50.810;12.540;2024-01-27T06:03:18;16.10;;;2.58;;
20589;SDS011;10453;50.810;12.540;2024-01-27T06:07:40;21.63;;;2.80;;
20589;SDS011;10453;50.810;12.540;2024-01-27T06:12:00;9.75;;;2.15;;
20589;SDS011;10453;50.810;12.540;2024-01-27T06:16:22;12.00;;;2.00;;
20589;SDS011;10453;50.810;12.540;2024-01-27T06:20:40;14.02;;;2.42;;
20589;SDS011;10453;50.810;12.540;2024-01-27T06:25:00;9.95;;;1.70;;
20589;SDS011;10453;50.810;12.540;2024-01-27T06:29:19;21.88;;;2.75;;
20589;SDS011;10453;50.810;12.540;2024-01-27T06:33:40;14.00;;;2.80;;
20589;SDS011;10453;50.810;12.540;2024-01-27T06:37:58;10.88;;;2.10;;
20589;SDS011;10453;50.810;12.540;2024-01-27T06:42:19;16.20;;;2.80;;
20589;SDS011;10453;50.810;12.540;2024-01-27T06:46:38;16.50;;;3.10;;
20589;SDS011;10453;50.810;12.540;2024-01-27T06:50:58;12.35;;;2.85;;
20589;SDS011;10453;50.810;12.540;2024-01-27T06:55:21;10.60;;;2.42;;
20589;SDS011;10453;50.810;12.540;2024-01-27T06:59:40;18.42;;;3.22;;
20589;SDS011;10453;50.810;12.540;2024-01-27T07:04:00;10.32;;;2.47;;
20589;SDS011;10453;50.810;12.540;2024-01-27T07:08:21;13.07;;;2.10;;
20589;SDS011;10453;50.810;12.540;2024-01-27T07:12:40;11.95;;;2.80;;
20589;SDS011;10453;50.810;12.540;2024-01-27T07:16:58;18.17;;;2.88;;
20589;SDS011;10453;50.810;12.540;2024-01-27T07:21:16;19.67;;;2.80;;
20589;SDS011;10453;50.810;12.540;2024-01-27T07:25:39;13.38;;;2.67;;
20589;SDS011;10453;50.810;12.540;2024-01-27T07:29:59;11.52;;;2.58;;
20589;SDS011;10453;50.810;12.540;2024-01-27T07:34:22;16.58;;;2.40;;
20589;SDS011;10453;50.810;12.540;2024-01-27T07:38:42;13.65;;;3.25;;
20589;SDS011;10453;50.810;12.540;2024-01-27T07:43:01;10.27;;;2.42;;
20589;SDS011;10453;50.810;12.540;2024-01-27T07:47:27;12.43;;;3.05;;
20589;SDS011;10453;50.810;12.540;2024-01-27T07:51:48;13.52;;;2.70;;
20589;SDS011;10453;50.810;12.540;2024-01-27T07:56:11;10.05;;;2.20;;
20589;SDS011;10453;50.810;12.540;2024-01-27T08:00:34;13.60;;;2.92;;
20589;SDS011;10453;50.810;12.540;2024-01-27T08:04:56;12.15;;;2.92;;
20589;SDS011;10453;50.810;12.540;2024-01-27T08:09:25;16.83;;;3.42;;
20589;SDS011;10453;50.810;12.540;2024-01-27T08:14:04;11.88;;;3.30;;
20589;SDS011;10453;50.810;12.540;2024-01-27T08:18:40;14.93;;;2.70;;
20589;SDS011;10453;50.810;12.540;2024-01-27T08:23:17;12.57;;;3.00;;
20589;SDS011;10453;50.810;12.540;2024-01-27T08:28:01;10.32;;;2.97;;
20589;SDS011;10453;50.810;12.540;2024-01-27T08:32:19;19.60;;;3.17;;
20589;SDS011;10453;50.810;12.540;2024-01-27T08:36:41;11.70;;;2.55;;
20589;SDS011;10453;50.810;12.540;2024-01-27T08:41:07;17.20;;;3.38;;
20589;SDS011;10453;50.810;12.540;2024-01-27T08:49:51;16.83;;;3.10;;
20589;SDS011;10453;50.810;12.540;2024-01-27T08:54:12;14.02;;;3.03;;
20589;SDS011;10453;50.810;12.540;2024-01-27T08:58:34;13.43;;;2.72;;
20589;SDS011;10453;50.810;12.540;2024-01-27T09:02:54;14.18;;;3.60;;
20589;SDS011;10453;50.810;12.540;2024-01-27T09:07:19;15.15;;;2.95;;
20589;SDS011;10453;50.810;12.540;2024-01-27T09:11:43;13.07;;;2.88;;
20589;SDS011;10453;50.810;12.540;2024-01-27T09:16:32;11.52;;;2.75;;
20589;SDS011;10453;50.810;12.540;2024-01-27T09:21:02;21.08;;;3.42;;
20589;SDS011;10453;50.810;12.540;2024-01-27T09:25:26;16.42;;;3.25;;
20589;SDS011;10453;50.810;12.540;2024-01-27T09:29:51;16.52;;;3.40;;
20589;SDS011;10453;50.810;12.540;2024-01-27T09:34:28;16.27;;;3.95;;
20589;SDS011;10453;50.810;12.540;2024-01-27T09:38:51;17.17;;;3.35;;
20589;SDS011;10453;50.810;12.540;2024-01-27T09:43:11;17.23;;;3.28;;
20589;SDS011;10453;50.810;12.540;2024-01-27T09:47:33;16.08;;;3.75;;
20589;SDS011;10453;50.810;12.540;2024-01-27T09:51:54;15.27;;;4.85;;
20589;SDS011;10453;50.810;12.540;2024-01-27T09:56:18;17.08;;;3.58;;
20589;SDS011;10453;50.810;12.540;2024-01-27T10:00:38;14.00;;;3.45;;
20589;SDS011;10453;50.810;12.540;2024-01-27T10:04:59;15.20;;;3.15;;
20589;SDS011;10453;50.810;12.540;2024-01-27T10:09:19;15.80;;;3.38;;
20589;SDS011;10453;50.810;12.540;2024-01-27T10:13:38;17.98;;;3.40;;
20589;SDS011;10453;50.810;12.540;2024-01-27T10:18:07;13.48;;;3.65;;
20589;SDS011;10453;50.810;12.540;2024-01-27T10:22:29;13.65;;;3.20;;
20589;SDS011;10453;50.810;12.540;2024-01-27T10:27:03;14.20;;;3.72;;
20589;SDS011;10453;50.810;12.540;2024-01-27T10:31:31;13.20;;;3.10;;
20589;SDS011;10453;50.810;12.540;2024-01-27T10:36:03;18.13;;;3.42;;
20589;SDS011;10453;50.810;12.540;2024-01-27T10:40:31;17.48;;;3.22;;
20589;SDS011;10453;50.810;12.540;2024-01-27T10:44:50;17.00;;;3.63;;
20589;SDS011;10453;50.810;12.540;2024-01-27T10:49:17;19.00;;;3.90;;
20589;SDS011;10453;50.810;12.540;2024-01-27T10:53:51;13.85;;;3.28;;
20589;SDS011;10453;50.810;12.540;2024-01-27T10:58:11;17.50;;;3.35;;
20589;SDS011;10453;50.810;12.540;2024-01-27T11:02:35;19.38;;;3.17;;
20589;SDS011;10453;50.810;12.540;2024-01-27T11:07:03;11.93;;;2.70;;
20589;SDS011;10453;50.810;12.540;2024-01-27T11:11:29;15.13;;;2.70;;
20589;SDS011;10453;50.810;12.540;2024-01-27T11:15:53;16.08;;;3.30;;
20589;SDS011;10453;50.810;12.540;2024-01-27T11:20:12;15.80;;;3.33;;
20589;SDS011;10453;50.810;12.540;2024-01-27T11:24:35;15.30;;;2.95;;
20589;SDS011;10453;50.810;12.540;2024-01-27T11:28:53;16.13;;;3.88;;
20589;SDS011;10453;50.810;12.540;2024-01-27T11:33:32;19.33;;;3.42;;
20589;SDS011;10453;50.810;12.540;2024-01-27T11:37:54;18.42;;;5.80;;
20589;SDS011;10453;50.810;12.540;2024-01-27T11:46:55;16.08;;;5.15;;
20589;SDS011;10453;50.810;12.540;2024-01-27T11:51:13;21.40;;;3.70;;
20589;SDS011;10453;50.810;12.540;2024-01-27T11:55:30;49.65;;;25.83;;
20589;SDS011;10453;50.810;12.540;2024-01-27T11:59:48;23.77;;;9.15;;
20589;SDS011;10453;50.810;12.540;2024-01-27T12:04:05;78.25;;;42.22;;
20589;SDS011;10453;50.810;12.540;2024-01-27T12:08:23;16.50;;;7.45;;
20589;SDS011;10453;50.810;12.540;2024-01-27T12:12:41;71.70;;;38.80;;
20589;SDS011;10453;50.810;12.540;2024-01-27T12:16:58;36.63;;;16.40;;
20589;SDS011;10453;50.810;12.540;2024-01-27T12:21:18;101.03;;;50.83;;
20589;SDS011;10453;50.810;12.540;2024-01-27T12:25:38;71.75;;;36.50;;
20589;SDS011;10453;50.810;12.540;2024-01-27T12:29:56;21.00;;;9.30;;
20589;SDS011;10453;50.810;12.540;2024-01-27T12:34:14;11.75;;;2.80;;
20589;SDS011;10453;50.810;12.540;2024-01-27T12:38:33;12.40;;;3.42;;
20589;SDS011;10453;50.810;12.540;2024-01-27T12:42:51;11.55;;;3.38;;
20589;SDS011;10453;50.810;12.540;2024-01-27T12:47:12;10.80;;;2.50;;
20589;SDS011;10453;50.810;12.540;2024-01-27T12:51:29;7.45;;;2.60;;
20589;SDS011;10453;50.810;12.540;2024-01-27T12:55:47;9.88;;;2.78;;
20589;SDS011;10453;50.810;12.540;2024-01-27T13:00:04;18.48;;;7.20;;
20589;SDS011;10453;50.810;12.540;2024-01-27T13:04:26;11.90;;;2.75;;
20589;SDS011;10453;50.810;12.540;2024-01-27T13:08:44;14.55;;;4.47;;
20589;SDS011;10453;50.810;12.540;2024-01-27T13:13:01;30.05;;;7.63;;
20589;SDS011;10453;50.810;12.540;2024-01-27T13:17:18;12.90;;;3.47;;
20589;SDS011;10453;50.810;12.540;2024-01-27T13:21:36;13.15;;;2.83;;
20589;SDS011;10453;50.810;12.540;2024-01-27T13:25:53;13.48;;;2.60;;
20589;SDS011;10453;50.810;12.540;2024-01-27T13:30:30;16.65;;;2.50;;
20589;SDS011;10453;50.810;12.540;2024-01-27T13:34:47;10.60;;;2.33;;
20589;SDS011;10453;50.810;12.540;2024-01-27T13:39:05;7.43;;;2.33;;
20589;SDS011;10453;50.810;12.540;2024-01-27T13:43:22;25.05;;;11.38;;
20589;SDS011;10453;50.810;12.540;2024-01-27T13:47:50;17.33;;;2.60;;
20589;SDS011;10453;50.810;12.540;2024-01-27T13:52:07;9.40;;;2.60;;
20589;SDS011;10453;50.810;12.540;2024-01-27T13:56:24;11.45;;;1.88;;
20589;SDS011;10453;50.810;12.540;2024-01-27T14:00:42;8.60;;;1.73;;
20589;SDS011;10453;50.810;12.540;2024-01-27T14:04:59;15.27;;;2.17;;
20589;SDS011;10453;50.810;12.540;2024-01-27T14:09:17;11.23;;;2.08;;
20589;SDS011;10453;50.810;12.540;2024-01-27T14:13:35;9.82;;;1.95;;
20589;SDS011;10453;50.810;12.540;2024-01-27T14:17:53;12.85;;;1.73;;
20589;SDS011;10453;50.810;12.540;2024-01-27T14:22:10;11.57;;;2.17;;
20589;SDS011;10453;50.810;12.540;2024-01-27T14:26:28;22.92;;;10.05;;
20589;SDS011;10453;50.810;12.540;2024-01-27T14:30:45;11.63;;;5.80;;
20589;SDS011;10453;50.810;12.540;2024-01-27T14:35:03;9.95;;;3.17;;
20589;SDS011;10453;50.810;12.540;2024-01-27T14:39:23;15.63;;;3.78;;
20589;SDS011;10453;50.810;12.540;2024-01-27T14:43:40;13.52;;;2.33;;
20589;SDS011;10453;50.810;12.540;2024-01-27T14:47:57;10.55;;;2.50;;
20589;SDS011;10453;50.810;12.540;2024-01-27T14:52:19;13.50;;;2.45;;
20589;SDS011;10453;50.810;12.540;2024-01-27T14:56:38;9.48;;;2.00;;
20589;SDS011;10453;50.810;12.540;2024-01-27T15:00:56;9.27;;;2.40;;
20589;SDS011;10453;50.810;12.540;2024-01-27T15:05:13;12.15;;;2.88;;
20589;SDS011;10453;50.810;12.540;2024-01-27T15:09:31;10.18;;;2.20;;
20589;SDS011;10453;50.810;12.540;2024-01-27T15:13:49;8.45;;;2.55;;
20589;SDS011;10453;50.810;12.540;2024-01-27T15:18:06;9.40;;;2.63;;
20589;SDS011;10453;50.810;12.540;2024-01-27T15:22:24;12.25;;;3.83;;
20589;SDS011;10453;50.810;12.540;2024-01-27T15:26:41;11.57;;;3.92;;
20589;SDS011;10453;50.810;12.540;2024-01-27T15:30:59;14.07;;;4.00;;
20589;SDS011;10453;50.810;12.540;2024-01-27T15:35:16;11.60;;;3.72;;
20589;SDS011;10453;50.810;12.540;2024-01-27T15:39:33;16.08;;;3.20;;
20589;SDS011;10453;50.810;12.540;2024-01-27T15:43:50;9.93;;;3.78;;
20589;SDS011;10453;50.810;12.540;2024-01-27T15:48:08;13.95;;;4.05;;
20589;SDS011;10453;50.810;12.540;2024-01-27T15:52:29;40.10;;;14.98;;
20589;SDS011;10453;50.810;12.540;2024-01-27T15:56:56;22.65;;;7.90;;
20589;SDS011;10453;50.810;12.540;2024-01-27T16:01:14;18.52;;;6.25;;
20589;SDS011;10453;50.810;12.540;2024-01-27T16:05:32;16.70;;;4.77;;
20589;SDS011;10453;50.810;12.540;2024-01-27T16:09:49;14.95;;;4.90;;
20589;SDS011;10453;50.810;12.540;2024-01-27T16:14:07;16.88;;;4.78;;
20589;SDS011;10453;50.810;12.540;2024-01-27T16:18:25;11.45;;;4.75;;
20589;SDS011;10453;50.810;12.540;2024-01-27T16:22:42;16.33;;;5.03;;
20589;SDS011;10453;50.810;12.540;2024-01-27T16:27:00;14.18;;;5.32;;
20589;SDS011;10453;50.810;12.540;2024-01-27T16:31:17;21.17;;;6.10;;
20589;SDS011;10453;50.810;12.540;2024-01-27T16:35:34;19.50;;;8.60;;
20589;SDS011;10453;50.810;12.540;2024-01-27T16:39:52;22.85;;;8.15;;
20589;SDS011;10453;50.810;12.540;2024-01-27T16:44:09;20.70;;;9.60;;
20589;SDS011;10453;50.810;12.540;2024-01-27T16:48:26;17.17;;;8.38;;
20589;SDS011;10453;50.810;12.540;2024-01-27T16:52:43;20.48;;;8.93;;
20589;SDS011;10453;50.810;12.540;2024-01-27T16:57:01;20.67;;;9.10;;
20589;SDS011;10453;50.810;12.540;2024-01-27T17:01:19;18.90;;;8.93;;
20589;SDS011;10453;50.810;12.540;2024-01-27T17:05:37;22.05;;;9.82;;
20589;SDS011;10453;50.810;12.540;2024-01-27T17:09:54;18.67;;;9.48;;
20589;SDS011;10453;50.810;12.540;2024-01-27T17:14:12;19.13;;;10.67;;
20589;SDS011;10453;50.810;12.540;2024-01-27T17:18:29;20.95;;;10.15;;
20589;SDS011;10453;50.810;12.540;2024-01-27T17:22:46;18.55;;;8.23;;
20589;SDS011;10453;50.810;12.540;2024-01-27T17:27:04;20.02;;;9.70;;
20589;SDS011;10453;50.810;12.540;2024-01-27T17:31:24;14.35;;;7.18;;
20589;SDS011;10453;50.810;12.540;2024-01-27T17:35:41;25.83;;;8.77;;
20589;SDS011;10453;50.810;12.540;2024-01-27T17:39:59;16.73;;;9.30;;
20589;SDS011;10453;50.810;12.540;2024-01-27T17:44:19;24.65;;;8.93;;
20589;SDS011;10453;50.810;12.540;2024-01-27T17:48:36;22.60;;;10.60;;
20589;SDS011;10453;50.810;12.540;2024-01-27T17:52:54;27.02;;;14.77;;
20589;SDS011;10453;50.810;12.540;2024-01-27T17:57:11;36.03;;;16.10;;
20589;SDS011;10453;50.810;12.540;2024-01-27T18:01:29;32.33;;;19.77;;
20589;SDS011;10453;50.810;12.540;2024-01-27T18:05:46;32.95;;;17.00;;
20589;SDS011;10453;50.810;12.540;2024-01-27T18:10:06;30.42;;;16.15;;
20589;SDS011;10453;50.810;12.540;2024-01-27T18:14:25;26.80;;;14.05;;
20589;SDS011;10453;50.810;12.540;2024-01-27T18:18:42;33.77;;;13.40;;
20589;SDS011;10453;50.810;12.540;2024-01-27T18:22:59;28.58;;;14.48;;
20589;SDS011;10453;50.810;12.540;2024-01-27T18:27:16;31.10;;;14.80;;
20589;SDS011;10453;50.810;12.540;2024-01-27T18:31:37;29.42;;;14.90;;
20589;SDS011;10453;50.810;12.540;2024-01-27T18:35:58;30.00;;;13.23;;
20589;SDS011;10453;50.810;12.540;2024-01-27T18:40:15;27.52;;;12.32;;
20589;SDS011;10453;50.810;12.540;2024-01-27T18:44:33;31.30;;;16.70;;
20589;SDS011;10453;50.810;12.540;2024-01-27T18:48:50;30.83;;;13.93;;
20589;SDS011;10453;50.810;12.540;2024-01-27T18:53:08;26.55;;;11.77;;
20589;SDS011;10453;50.810;12.540;2024-01-27T18:57:25;28.35;;;13.10;;
20589;SDS011;10453;50.810;12.540;2024-01-27T19:01:43;29.93;;;11.63;;
20589;SDS011;10453;50.810;12.540;2024-01-27T19:06:01;30.58;;;13.85;;
20589;SDS011;10453;50.810;12.540;2024-01-27T19:10:19;24.98;;;11.38;;
20589;SDS011;10453;50.810;12.540;2024-01-27T19:14:37;43.22;;;16.05;;
20589;SDS011;10453;50.810;12.540;2024-01-27T19:18:54;34.87;;;15.00;;
20589;SDS011;10453;50.810;12.540;2024-01-27T19:23:12;28.07;;;11.97;;
20589;SDS011;10453;50.810;12.540;2024-01-27T19:27:29;33.53;;;12.18;;
20589;SDS011;10453;50.810;12.540;2024-01-27T19:31:47;29.52;;;11.07;;
20589;SDS011;10453;50.810;12.540;2024-01-27T19:36:05;23.35;;;12.70;;
20589;SDS011;10453;50.810;12.540;2024-01-27T19:40:22;30.23;;;12.77;;
20589;SDS011;10453;50.810;12.540;2024-01-27T19:44:39;35.72;;;15.48;;
20589;SDS011;10453;50.810;12.540;2024-01-27T19:48:57;34.22;;;14.77;;
20589;SDS011;10453;50.810;12.540;2024-01-27T19:53:14;37.35;;;14.32;;
20589;SDS011;10453;50.810;12.540;2024-01-27T19:57:32;42.67;;;15.13;;
20589;SDS011;10453;50.810;12.540;2024-01-27T20:01:49;48.20;;;18.63;;
20589;SDS011;10453;50.810;12.540;2024-01-27T20:06:07;38.10;;;16.53;;
20589;SDS011;10453;50.810;12.540;2024-01-27T20:10:25;32.83;;;15.02;;
20589;SDS011;10453;50.810;12.540;2024-01-27T20:14:42;43.13;;;17.05;;
20589;SDS011;10453;50.810;12.540;2024-01-27T20:18:59;41.03;;;17.40;;
20589;SDS011;10453;50.810;12.540;2024-01-27T20:23:17;49.47;;;20.30;;
20589;SDS011;10453;50.810;12.540;2024-01-27T20:27:34;42.40;;;19.23;;
20589;SDS011;10453;50.810;12.540;2024-01-27T20:31:52;50.67;;;18.33;;
20589;SDS011;10453;50.810;12.540;2024-01-27T20:36:12;42.53;;;17.15;;
20589;SDS011;10453;50.810;12.540;2024-01-27T20:40:29;37.07;;;17.00;;
20589;SDS011;10453;50.810;12.540;2024-01-27T20:44:47;43.95;;;17.80;;
20589;SDS011;10453;50.810;12.540;2024-01-27T20:49:05;39.05;;;16.13;;
20589;SDS011;10453;50.810;12.540;2024-01-27T20:53:22;40.47;;;16.35;;
20589;SDS011;10453;50.810;12.540;2024-01-27T20:57:39;36.73;;;15.60;;
20589;SDS011;10453;50.810;12.540;2024-01-27T21:01:57;34.93;;;12.50;;
20589;SDS011;10453;50.810;12.540;2024-01-27T21:06:19;28.38;;;11.25;;
20589;SDS011;10453;50.810;12.540;2024-01-27T21:10:36;25.07;;;11.13;;
20589;SDS011;10453;50.810;12.540;2024-01-27T21:14:53;28.60;;;11.00;;
20589;SDS011;10453;50.810;12.540;2024-01-27T21:19:10;22.75;;;10.65;;
20589;SDS011;10453;50.810;12.540;2024-01-27T21:23:28;23.85;;;11.20;;
20589;SDS011;10453;50.810;12.540;2024-01-27T21:27:45;31.53;;;12.13;;
20589;SDS011;10453;50.810;12.540;2024-01-27T21:32:03;30.10;;;10.60;;
20589;SDS011;10453;50.810;12.540;2024-01-27T21:36:21;32.88;;;13.00;;
20589;SDS011;10453;50.810;12.540;2024-01-27T21:40:38;37.33;;;12.20;;
20589;SDS011;10453;50.810;12.540;2024-01-27T21:44:58;33.22;;;10.93;;
20589;SDS011;10453;50.810;12.540;2024-01-27T21:49:16;28.80;;;10.75;;
20589;SDS011;10453;50.810;12.540;2024-01-27T21:53:34;20.73;;;9.50;;
20589;SDS011;10453;50.810;12.540;2024-01-27T21:57:51;32.95;;;11.13;;
20589;SDS011;10453;50.810;12.540;2024-01-27T22:02:10;26.67;;;10.75;;
20589;SDS011;10453;50.810;12.540;2024-01-27T22:06:27;27.05;;;9.98;;
20589;SDS011;10453;50.810;12.540;2024-01-27T22:10:45;26.23;;;10.13;;
20589;SDS011;10453;50.810;12.540;2024-01-27T22:15:02;27.05;;;11.52;;
20589;SDS011;10453;50.810;12.540;2024-01-27T22:19:23;26.50;;;9.95;;
20589;SDS011;10453;50.810;12.540;2024-01-27T22:23:41;25.27;;;9.80;;
20589;SDS011;10453;50.810;12.540;2024-01-27T22:27:58;31.63;;;11.83;;
20589;SDS011;10453;50.810;12.540;2024-01-27T22:32:15;37.23;;;10.47;;
20589;SDS011;10453;50.810;12.540;2024-01-27T22:36:32;29.17;;;11.65;;
20589;SDS011;10453;50.810;12.540;2024-01-27T22:40:51;23.27;;;10.50;;
20589;SDS011;10453;50.810;12.540;2024-01-27T22:49:27;26.90;;;9.60;;
20589;SDS011;10453;50.810;12.540;2024-01-27T22:53:44;29.35;;;10.20;;
20589;SDS011;10453;50.810;12.540;2024-01-27T22:58:02;20.63;;;9.60;;
20589;SDS011;10453;50.810;12.540;2024-01-27T23:02:19;25.60;;;9.33;;
20589;SDS011;10453;50.810;12.540;2024-01-27T23:06:36;24.93;;;8.30;;
20589;SDS011;10453;50.810;12.540;2024-01-27T23:10:53;28.35;;;9.18;;
20589;SDS011;10453;50.810;12.540;2024-01-27T23:15:11;31.60;;;9.50;;
20589;SDS011;10453;50.810;12.540;2024-01-27T23:19:28;21.42;;;8.27;;
20589;SDS011;10453;50.810;12.540;2024-01-27T23:23:45;28.93;;;8.87;;
20589;SDS011;10453;50.810;12.540;2024-01-27T23:28:03;25.30;;;8.93;;
20589;SDS011;10453;50.810;12.540;2024-01-27T23:32:20;23.88;;;8.35;;
20589;SDS011;10453;50.810;12.540;2024-01-27T23:36:38;22.88;;;8.88;;
20589;SDS011;10453;50.810;12.540;2024-01-27T23:40:56;28.13;;;11.07;;
20589;SDS011;10453;50.810;12.540;2024-01-27T23:45:13;39.27;;;12.20;;
20589;SDS011;10453;50.810;12.540;2024-01-27T23:49:32;51.92;;;19.98;;
20589;SDS011;10453;50.810;12.540;2024-01-27T23:53:49;49.78;;;15.98;;
20589;SDS011;10453;50.810;12.540;2024-01-27T23:58:17;64.65;;;21.67;;
